sensor_id;sensor_type;location;lat;lon;timestamp;pressure;altitude;pressure_sealevel;temperature;humidity
65685;BME280;52405;50.844;-1.062;2022-11-15T00:00:26;100566.63;;;12.94;64.75
65685;BME280;52405;50.844;-1.062;2022-11-15T00:02:52;100567.47;;;12.93;65.40
65685;BME280;52405;50.844;-1.062;2022-11-15T00:05:18;100572.81;;;12.99;65.50
65685;BME280;52405;50.844;-1.062;2022-11-15T00:07:43;100550.88;;;12.89;65.33
65685;BME280;52405;50.844;-1.062;2022-11-15T00:10:09;100564.22;;;13.03;64.94
65685;BME280;52405;50.844;-1.062;2022-11-15T00:12:35;100560.72;;;13.03;65.48
65685;BME280;52405;50.844;-1.062;2022-11-15T00:15:00;100555.41;;;12.98;65.19
65685;BME280;52405;50.844;-1.062;2022-11-15T00:17:26;100562.59;;;13.08;65.38
65685;BME280;52405;50.844;-1.062;2022-11-15T00:19:51;100541.72;;;13.07;65.77
65685;BME280;52405;50.844;-1.062;2022-11-15T00:22:17;100533.06;;;13.09;65.31
65685;BME280;52405;50.844;-1.062;2022-11-15T00:24:43;100540.03;;;13.09;66.10
65685;BME280;52405;50.844;-1.062;2022-11-15T00:27:08;100527.00;;;13.09;65.77
65685;BME280;52405;50.844;-1.062;2022-11-15T00:29:34;100526.09;;;13.08;65.63
65685;BME280;52405;50.844;-1.062;2022-11-15T00:31:59;100522.66;;;13.09;66.26
65685;BME280;52405;50.844;-1.062;2022-11-15T00:34:25;100511.38;;;13.10;66.52
65685;BME280;52405;50.844;-1.062;2022-11-15T00:36:50;100506.19;;;13.12;66.20
65685;BME280;52405;50.844;-1.062;2022-11-15T00:39:15;100500.97;;;13.12;66.45
65685;BME280;52405;50.844;-1.062;2022-11-15T00:41:41;100488.81;;;13.13;66.72
65685;BME280;52405;50.844;-1.062;2022-11-15T00:44:06;100489.69;;;13.13;66.49
65685;BME280;52405;50.844;-1.062;2022-11-15T00:46:32;100459.91;;;13.02;66.62
65685;BME280;52405;50.844;-1.062;2022-11-15T00:48:57;100465.31;;;13.11;66.76
65685;BME280;52405;50.844;-1.062;2022-11-15T00:51:23;100468.81;;;13.11;67.63
65685;BME280;52405;50.844;-1.062;2022-11-15T00:53:48;100475.75;;;13.11;67.03
65685;BME280;52405;50.844;-1.062;2022-11-15T00:56:14;100461.84;;;13.12;67.43
65685;BME280;52405;50.844;-1.062;2022-11-15T00:58:39;100467.06;;;13.12;67.38
65685;BME280;52405;50.844;-1.062;2022-11-15T01:01:06;100468.81;;;13.11;67.14
65685;BME280;52405;50.844;-1.062;2022-11-15T01:03:33;100465.31;;;13.11;67.53
65685;BME280;52405;50.844;-1.062;2022-11-15T01:06:00;100466.19;;;13.11;67.60
65685;BME280;52405;50.844;-1.062;2022-11-15T01:08:25;100432.81;;;12.95;68.18
65685;BME280;52405;50.844;-1.062;2022-11-15T01:10:51;100447.09;;;13.13;68.09
65685;BME280;52405;50.844;-1.062;2022-11-15T01:13:16;100441.03;;;13.14;68.32
65685;BME280;52405;50.844;-1.062;2022-11-15T01:15:42;100434.97;;;13.15;68.26
65685;BME280;52405;50.844;-1.062;2022-11-15T01:18:08;100428.06;;;13.17;68.13
65685;BME280;52405;50.844;-1.062;2022-11-15T01:20:33;100411.53;;;13.16;67.97
65685;BME280;52405;50.844;-1.062;2022-11-15T01:22:59;100406.34;;;13.18;68.14
65685;BME280;52405;50.844;-1.062;2022-11-15T01:25:24;100397.72;;;13.20;68.00
65685;BME280;52405;50.844;-1.062;2022-11-15T01:27:49;100393.38;;;13.21;67.89
65685;BME280;52405;50.844;-1.062;2022-11-15T01:30:15;100391.66;;;13.23;68.34
65685;BME280;52405;50.844;-1.062;2022-11-15T01:32:40;100376.91;;;13.23;68.86
65685;BME280;52405;50.844;-1.062;2022-11-15T01:35:06;100377.72;;;13.21;68.54
65685;BME280;52405;50.844;-1.062;2022-11-15T01:37:32;100373.47;;;13.26;68.58
65685;BME280;52405;50.844;-1.062;2022-11-15T01:39:57;100363.94;;;13.28;68.32
65685;BME280;52405;50.844;-1.062;2022-11-15T01:42:23;100346.44;;;13.21;69.19
65685;BME280;52405;50.844;-1.062;2022-11-15T01:44:52;100361.38;;;13.29;68.61
65685;BME280;52405;50.844;-1.062;2022-11-15T01:47:31;100353.56;;;13.29;68.60
65685;BME280;52405;50.844;-1.062;2022-11-15T01:50:05;100351.81;;;13.30;69.12
65685;BME280;52405;50.844;-1.062;2022-11-15T01:52:32;100346.69;;;13.33;69.31
65685;BME280;52405;50.844;-1.062;2022-11-15T01:57:31;100340.69;;;13.37;69.03
65685;BME280;52405;50.844;-1.062;2022-11-15T01:59:57;100296.88;;;13.21;68.89
65685;BME280;52405;50.844;-1.062;2022-11-15T02:02:25;100325.09;;;13.40;68.77
65685;BME280;52405;50.844;-1.062;2022-11-15T02:04:51;100330.31;;;13.40;68.80
65685;BME280;52405;50.844;-1.062;2022-11-15T02:07:18;100327.72;;;13.43;69.42
65685;BME280;52405;50.844;-1.062;2022-11-15T02:09:45;100317.38;;;13.46;69.19
65685;BME280;52405;50.844;-1.062;2022-11-15T02:12:14;100322.63;;;13.48;68.74
65685;BME280;52405;50.844;-1.062;2022-11-15T02:14:42;100302.47;;;13.41;68.85
65685;BME280;52405;50.844;-1.062;2022-11-15T02:17:25;100313.06;;;13.50;68.42
65685;BME280;52405;50.844;-1.062;2022-11-15T02:20:20;100307.88;;;13.52;68.83
65685;BME280;52405;50.844;-1.062;2022-11-15T02:28:16;100297.50;;;13.56;68.02
65685;BME280;52405;50.844;-1.062;2022-11-15T02:36:29;100270.66;;;13.60;67.92
65685;BME280;52405;50.844;-1.062;2022-11-15T02:42:00;100262.94;;;13.68;68.22
65685;BME280;52405;50.844;-1.062;2022-11-15T02:44:44;100262.06;;;13.69;67.63
65685;BME280;52405;50.844;-1.062;2022-11-15T02:47:13;100251.63;;;13.69;68.04
65685;BME280;52405;50.844;-1.062;2022-11-15T02:49:53;100254.28;;;13.72;68.30
65685;BME280;52405;50.844;-1.062;2022-11-15T02:52:21;100242.09;;;13.73;67.83
65685;BME280;52405;50.844;-1.062;2022-11-15T02:54:59;100239.50;;;13.73;68.03
65685;BME280;52405;50.844;-1.062;2022-11-15T02:57:50;100237.75;;;13.72;67.34
65685;BME280;52405;50.844;-1.062;2022-11-15T03:00:20;100238.69;;;13.75;67.42
65685;BME280;52405;50.844;-1.062;2022-11-15T03:11:28;100224.72;;;13.75;67.90
65685;BME280;52405;50.844;-1.062;2022-11-15T03:13:59;100214.22;;;13.68;68.22
65685;BME280;52405;50.844;-1.062;2022-11-15T03:16:39;100212.56;;;13.74;68.39
65685;BME280;52405;50.844;-1.062;2022-11-15T03:19:12;100192.53;;;13.71;68.89
65685;BME280;52405;50.844;-1.062;2022-11-15T03:21:39;100156.50;;;13.47;68.76
65685;BME280;52405;50.844;-1.062;2022-11-15T03:24:07;100204.66;;;13.71;68.65
65685;BME280;52405;50.844;-1.062;2022-11-15T03:26:35;100189.00;;;13.69;69.47
65685;BME280;52405;50.844;-1.062;2022-11-15T03:29:10;100183.75;;;13.66;70.15
65685;BME280;52405;50.844;-1.062;2022-11-15T03:31:40;100181.16;;;13.67;69.96
65685;BME280;52405;50.844;-1.062;2022-11-15T03:34:19;100158.50;;;13.65;69.43
65685;BME280;52405;50.844;-1.062;2022-11-15T03:36:47;100161.97;;;13.64;70.23
65685;BME280;52405;50.844;-1.062;2022-11-15T03:39:13;100155.00;;;13.64;70.35
65685;BME280;52405;50.844;-1.062;2022-11-15T03:47:01;100140.28;;;13.68;70.49
65685;BME280;52405;50.844;-1.062;2022-11-15T03:49:33;100134.19;;;13.67;70.44
65685;BME280;52405;50.844;-1.062;2022-11-15T03:52:00;100123.75;;;13.69;70.31
65685;BME280;52405;50.844;-1.062;2022-11-15T03:54:27;100132.50;;;13.73;70.85
65685;BME280;52405;50.844;-1.062;2022-11-15T03:56:53;100083.56;;;13.56;70.38
65685;BME280;52405;50.844;-1.062;2022-11-15T03:59:18;100106.41;;;13.71;70.76
65685;BME280;52405;50.844;-1.062;2022-11-15T04:01:44;100119.44;;;13.73;70.64
65685;BME280;52405;50.844;-1.062;2022-11-15T04:04:10;100109.88;;;13.72;70.96
65685;BME280;52405;50.844;-1.062;2022-11-15T04:06:35;100103.78;;;13.71;71.08
65685;BME280;52405;50.844;-1.062;2022-11-15T04:09:01;100097.63;;;13.66;71.77
65685;BME280;52405;50.844;-1.062;2022-11-15T04:11:26;100084.59;;;13.66;71.86
65685;BME280;52405;50.844;-1.062;2022-11-15T04:13:52;100097.53;;;13.60;72.54
65685;BME280;52405;50.844;-1.062;2022-11-15T04:16:17;100074.00;;;13.55;72.99
65685;BME280;52405;50.844;-1.062;2022-11-15T04:18:43;100082.66;;;13.53;72.83
65685;BME280;52405;50.844;-1.062;2022-11-15T04:21:08;100079.16;;;13.50;73.34
65685;BME280;52405;50.844;-1.062;2022-11-15T04:23:53;100059.94;;;13.44;72.92
65685;BME280;52405;50.844;-1.062;2022-11-15T04:26:30;100058.16;;;13.41;73.33
65685;BME280;52405;50.844;-1.062;2022-11-15T04:28:56;100069.47;;;13.40;73.40
65685;BME280;52405;50.844;-1.062;2022-11-15T04:31:40;100051.09;;;13.31;74.06
65685;BME280;52405;50.844;-1.062;2022-11-15T04:34:05;100055.50;;;13.37;74.30
65685;BME280;52405;50.844;-1.062;2022-11-15T04:36:31;100045.94;;;13.37;74.02
65685;BME280;52405;50.844;-1.062;2022-11-15T04:39:15;100055.47;;;13.35;75.02
65685;BME280;52405;50.844;-1.062;2022-11-15T04:41:40;100037.13;;;13.30;75.19
65685;BME280;52405;50.844;-1.062;2022-11-15T04:44:05;100043.25;;;13.31;75.13
65685;BME280;52405;50.844;-1.062;2022-11-15T04:46:32;100031.09;;;13.32;75.66
65685;BME280;52405;50.844;-1.062;2022-11-15T04:48:57;100020.69;;;13.33;75.29
65685;BME280;52405;50.844;-1.062;2022-11-15T04:51:23;100022.34;;;13.29;75.84
65685;BME280;52405;50.844;-1.062;2022-11-15T04:53:48;100000.50;;;13.20;75.65
65685;BME280;52405;50.844;-1.062;2022-11-15T04:56:14;99981.25;;;13.11;76.07
65685;BME280;52405;50.844;-1.062;2022-11-15T04:58:39;100000.56;;;13.26;75.85
65685;BME280;52405;50.844;-1.062;2022-11-15T05:03:33;99984.03;;;13.27;76.21
65685;BME280;52405;50.844;-1.062;2022-11-15T05:06:17;99982.28;;;13.24;76.54
65685;BME280;52405;50.844;-1.062;2022-11-15T05:08:43;99981.44;;;13.28;76.13
65685;BME280;52405;50.844;-1.062;2022-11-15T05:11:08;99965.81;;;13.30;76.50
65685;BME280;52405;50.844;-1.062;2022-11-15T05:13:33;99972.78;;;13.29;76.22
65685;BME280;52405;50.844;-1.062;2022-11-15T05:15:59;99959.66;;;13.22;76.68
65685;BME280;52405;50.844;-1.062;2022-11-15T05:18:25;99967.50;;;13.25;76.04
65685;BME280;52405;50.844;-1.062;2022-11-15T05:20:50;99947.50;;;13.24;76.68
65685;BME280;52405;50.844;-1.062;2022-11-15T05:23:16;99935.25;;;13.17;76.68
65685;BME280;52405;50.844;-1.062;2022-11-15T05:25:41;99948.34;;;13.20;77.09
65685;BME280;52405;50.844;-1.062;2022-11-15T05:28:07;99915.16;;;13.09;77.19
65685;BME280;52405;50.844;-1.062;2022-11-15T05:30:32;99928.28;;;13.17;77.32
65685;BME280;52405;50.844;-1.062;2022-11-15T05:32:58;99916.09;;;13.15;77.83
65685;BME280;52405;50.844;-1.062;2022-11-15T05:35:35;99911.69;;;13.07;78.17
65685;BME280;52405;50.844;-1.062;2022-11-15T05:38:03;99905.69;;;13.15;77.96
65685;BME280;52405;50.844;-1.062;2022-11-15T05:40:29;99910.03;;;13.14;78.53
65685;BME280;52405;50.844;-1.062;2022-11-15T05:42:57;99899.59;;;13.16;78.03
65685;BME280;52405;50.844;-1.062;2022-11-15T05:45:23;99892.59;;;13.11;78.63
65685;BME280;52405;50.844;-1.062;2022-11-15T05:47:49;99895.28;;;13.16;78.71
65685;BME280;52405;50.844;-1.062;2022-11-15T05:50:16;99883.09;;;13.17;78.40
65685;BME280;52405;50.844;-1.062;2022-11-15T05:52:45;99874.41;;;13.18;79.14
65685;BME280;52405;50.844;-1.062;2022-11-15T05:55:11;99849.09;;;13.07;78.78
65685;BME280;52405;50.844;-1.062;2022-11-15T05:57:37;99866.59;;;13.18;78.79
65685;BME280;52405;50.844;-1.062;2022-11-15T06:00:04;99872.69;;;13.18;78.70
65685;BME280;52405;50.844;-1.062;2022-11-15T06:02:29;99850.94;;;13.18;78.80
65685;BME280;52405;50.844;-1.062;2022-11-15T06:04:55;99858.78;;;13.16;79.21
65685;BME280;52405;50.844;-1.062;2022-11-15T06:07:20;99846.53;;;13.12;79.66
65685;BME280;52405;50.844;-1.062;2022-11-15T06:09:46;99839.63;;;13.13;79.31
65685;BME280;52405;50.844;-1.062;2022-11-15T06:12:11;99829.97;;;13.05;79.47
65685;BME280;52405;50.844;-1.062;2022-11-15T06:14:36;99838.75;;;13.14;80.13
65685;BME280;52405;50.844;-1.062;2022-11-15T06:17:02;99837.91;;;13.15;79.55
65685;BME280;52405;50.844;-1.062;2022-11-15T06:19:28;99831.81;;;13.16;79.95
65685;BME280;52405;50.844;-1.062;2022-11-15T06:22:00;99819.66;;;13.18;80.03
65685;BME280;52405;50.844;-1.062;2022-11-15T06:24:26;99814.44;;;13.18;80.77
65685;BME280;52405;50.844;-1.062;2022-11-15T06:26:51;99819.66;;;13.16;80.19
65685;BME280;52405;50.844;-1.062;2022-11-15T06:29:17;99811.81;;;13.13;80.31
65685;BME280;52405;50.844;-1.062;2022-11-15T06:31:42;99810.13;;;13.18;80.15
65685;BME280;52405;50.844;-1.062;2022-11-15T06:34:08;99823.16;;;13.18;80.72
65685;BME280;52405;50.844;-1.062;2022-11-15T06:36:36;99821.41;;;13.19;80.30
65685;BME280;52405;50.844;-1.062;2022-11-15T06:39:05;99811.81;;;13.15;80.09
65685;BME280;52405;50.844;-1.062;2022-11-15T06:41:34;99817.94;;;13.18;80.69
65685;BME280;52405;50.844;-1.062;2022-11-15T06:43:59;99787.41;;;13.08;80.94
65685;BME280;52405;50.844;-1.062;2022-11-15T06:46:25;99811.03;;;13.22;80.57
65685;BME280;52405;50.844;-1.062;2022-11-15T06:48:51;99802.34;;;13.23;81.18
65685;BME280;52405;50.844;-1.062;2022-11-15T06:51:17;99794.56;;;13.26;80.56
65685;BME280;52405;50.844;-1.062;2022-11-15T06:53:43;99811.09;;;13.28;81.41
65685;BME280;52405;50.844;-1.062;2022-11-15T06:56:08;99801.50;;;13.28;81.35
65685;BME280;52405;50.844;-1.062;2022-11-15T06:58:34;99778.03;;;13.24;81.02
65685;BME280;52405;50.844;-1.062;2022-11-15T07:01:09;99804.22;;;13.33;81.44
65685;BME280;52405;50.844;-1.062;2022-11-15T07:03:39;99795.50;;;13.31;81.18
65685;BME280;52405;50.844;-1.062;2022-11-15T07:06:05;99793.75;;;13.32;80.91
65685;BME280;52405;50.844;-1.062;2022-11-15T07:08:31;99791.19;;;13.35;81.54
65685;BME280;52405;50.844;-1.062;2022-11-15T07:10:58;99796.31;;;13.30;81.37
65685;BME280;52405;50.844;-1.062;2022-11-15T07:13:25;99737.00;;;13.07;80.85
65685;BME280;52405;50.844;-1.062;2022-11-15T07:15:51;99793.81;;;13.36;81.64
65685;BME280;52405;50.844;-1.062;2022-11-15T07:18:16;99780.75;;;13.33;81.74
65685;BME280;52405;50.844;-1.062;2022-11-15T07:20:42;99779.88;;;13.36;81.79
65685;BME280;52405;50.844;-1.062;2022-11-15T07:23:07;99770.22;;;13.28;81.51
65685;BME280;52405;50.844;-1.062;2022-11-15T07:25:33;99772.03;;;13.31;81.41
65685;BME280;52405;50.844;-1.062;2022-11-15T07:28:00;99786.00;;;13.36;81.61
65685;BME280;52405;50.844;-1.062;2022-11-15T07:30:26;99768.59;;;13.37;81.69
65685;BME280;52405;50.844;-1.062;2022-11-15T07:33:01;99772.09;;;13.37;81.26
65685;BME280;52405;50.844;-1.062;2022-11-15T07:35:27;99766.03;;;13.38;81.79
65685;BME280;52405;50.844;-1.062;2022-11-15T07:37:57;99762.50;;;13.38;81.47
65685;BME280;52405;50.844;-1.062;2022-11-15T07:40:24;99758.19;;;13.37;81.33
65685;BME280;52405;50.844;-1.062;2022-11-15T07:42:50;99750.38;;;13.38;81.28
65685;BME280;52405;50.844;-1.062;2022-11-15T07:45:20;99737.28;;;13.35;82.01
65685;BME280;52405;50.844;-1.062;2022-11-15T07:47:46;99722.31;;;13.16;81.85
65685;BME280;52405;50.844;-1.062;2022-11-15T07:50:12;99746.88;;;13.36;82.29
65685;BME280;52405;50.844;-1.062;2022-11-15T07:52:37;99735.56;;;13.36;81.85
65685;BME280;52405;50.844;-1.062;2022-11-15T07:55:03;99738.19;;;13.39;81.62
65685;BME280;52405;50.844;-1.062;2022-11-15T07:57:29;99743.41;;;13.39;82.04
65685;BME280;52405;50.844;-1.062;2022-11-15T07:59:55;99731.22;;;13.36;81.76
65685;BME280;52405;50.844;-1.062;2022-11-15T08:02:20;99738.22;;;13.43;81.41
65685;BME280;52405;50.844;-1.062;2022-11-15T08:04:46;99735.63;;;13.45;82.15
65685;BME280;52405;50.844;-1.062;2022-11-15T08:07:12;99731.31;;;13.45;82.14
65685;BME280;52405;50.844;-1.062;2022-11-15T08:09:38;99725.19;;;13.45;81.75
65685;BME280;52405;50.844;-1.062;2022-11-15T08:12:04;99721.75;;;13.46;81.93
65685;BME280;52405;50.844;-1.062;2022-11-15T08:14:29;99733.91;;;13.45;81.31
65685;BME280;52405;50.844;-1.062;2022-11-15T08:16:55;99724.31;;;13.44;81.25
65685;BME280;52405;50.844;-1.062;2022-11-15T08:19:21;99713.03;;;13.44;81.86
65685;BME280;52405;50.844;-1.062;2022-11-15T08:21:46;99706.09;;;13.46;81.83
65685;BME280;52405;50.844;-1.062;2022-11-15T08:24:11;99720.03;;;13.49;81.85
65685;BME280;52405;50.844;-1.062;2022-11-15T08:26:37;99717.41;;;13.49;81.05
65685;BME280;52405;50.844;-1.062;2022-11-15T08:29:03;99726.13;;;13.50;81.16
65685;BME280;52405;50.844;-1.062;2022-11-15T08:31:28;99718.28;;;13.50;81.35
65685;BME280;52405;50.844;-1.062;2022-11-15T08:33:54;99719.16;;;13.50;81.75
65685;BME280;52405;50.844;-1.062;2022-11-15T08:36:20;99691.34;;;13.49;81.04
65685;BME280;52405;50.844;-1.062;2022-11-15T08:38:45;99690.47;;;13.47;81.87
65685;BME280;52405;50.844;-1.062;2022-11-15T08:41:14;99699.13;;;13.46;81.87
65685;BME280;52405;50.844;-1.062;2022-11-15T08:43:42;99687.78;;;13.43;81.57
65685;BME280;52405;50.844;-1.062;2022-11-15T08:46:11;99683.44;;;13.40;82.06
65685;BME280;52405;50.844;-1.062;2022-11-15T08:48:37;99682.56;;;13.41;82.16
65685;BME280;52405;50.844;-1.062;2022-11-15T08:51:03;99665.19;;;13.40;81.83
65685;BME280;52405;50.844;-1.062;2022-11-15T08:53:28;99624.19;;;13.24;82.19
65685;BME280;52405;50.844;-1.062;2022-11-15T08:55:54;99663.47;;;13.42;82.32
65685;BME280;52405;50.844;-1.062;2022-11-15T08:58:19;99644.31;;;13.43;81.97
65685;BME280;52405;50.844;-1.062;2022-11-15T09:00:45;99647.81;;;13.44;82.49
65685;BME280;52405;50.844;-1.062;2022-11-15T09:03:10;99646.09;;;13.44;81.96
65685;BME280;52405;50.844;-1.062;2022-11-15T09:05:36;99634.78;;;13.47;82.00
65685;BME280;52405;50.844;-1.062;2022-11-15T09:08:03;99631.31;;;13.48;82.41
65685;BME280;52405;50.844;-1.062;2022-11-15T09:10:28;99627.84;;;13.47;82.42
65685;BME280;52405;50.844;-1.062;2022-11-15T09:12:56;99626.97;;;13.45;82.24
65685;BME280;52405;50.844;-1.062;2022-11-15T09:15:22;99630.47;;;13.47;82.02
65685;BME280;52405;50.844;-1.062;2022-11-15T09:17:48;99626.09;;;13.46;82.40
65685;BME280;52405;50.844;-1.062;2022-11-15T09:20:14;99619.13;;;13.47;82.11
65685;BME280;52405;50.844;-1.062;2022-11-15T09:22:39;99613.06;;;13.46;82.19
65685;BME280;52405;50.844;-1.062;2022-11-15T09:25:05;99601.78;;;13.47;82.97
65685;BME280;52405;50.844;-1.062;2022-11-15T09:27:31;99603.50;;;13.45;82.44
65685;BME280;52405;50.844;-1.062;2022-11-15T09:29:57;99603.50;;;13.45;82.41
65685;BME280;52405;50.844;-1.062;2022-11-15T09:32:23;99606.09;;;13.45;82.46
65685;BME280;52405;50.844;-1.062;2022-11-15T09:34:49;99593.06;;;13.45;82.68
65685;BME280;52405;50.844;-1.062;2022-11-15T09:37:15;99590.47;;;13.45;82.68
65685;BME280;52405;50.844;-1.062;2022-11-15T09:39:41;99600.00;;;13.46;82.86
65685;BME280;52405;50.844;-1.062;2022-11-15T09:45:09;99584.38;;;13.46;83.53
65685;BME280;52405;50.844;-1.062;2022-11-15T09:50:49;99561.75;;;13.48;83.55
65685;BME280;52405;50.844;-1.062;2022-11-15T09:53:39;99558.28;;;13.53;82.88
65685;BME280;52405;50.844;-1.062;2022-11-15T09:56:16;99553.09;;;13.54;83.69
65685;BME280;52405;50.844;-1.062;2022-11-15T10:01:47;99549.66;;;13.58;83.23
65685;BME280;52405;50.844;-1.062;2022-11-15T10:04:16;99537.44;;;13.54;83.33
65685;BME280;52405;50.844;-1.062;2022-11-15T10:06:55;99536.59;;;13.61;83.24
65685;BME280;52405;50.844;-1.062;2022-11-15T10:09:31;99514.84;;;13.56;83.51
65685;BME280;52405;50.844;-1.062;2022-11-15T10:11:59;99520.09;;;13.67;82.81
65685;BME280;52405;50.844;-1.062;2022-11-15T10:14:27;99527.94;;;13.68;83.42
65685;BME280;52405;50.844;-1.062;2022-11-15T10:22:41;99515.78;;;13.74;82.86
65685;BME280;52405;50.844;-1.062;2022-11-15T10:27:34;99527.97;;;13.78;82.55
65685;BME280;52405;50.844;-1.062;2022-11-15T10:30:00;99483.59;;;13.70;82.63
65685;BME280;52405;50.844;-1.062;2022-11-15T10:32:26;99508.81;;;13.74;82.78
65685;BME280;52405;50.844;-1.062;2022-11-15T10:34:52;99507.97;;;13.74;83.14
65685;BME280;52405;50.844;-1.062;2022-11-15T10:37:30;99506.19;;;13.73;82.42
65685;BME280;52405;50.844;-1.062;2022-11-15T10:40:05;99490.53;;;13.73;82.56
65685;BME280;52405;50.844;-1.062;2022-11-15T10:42:31;99502.75;;;13.75;82.45
65685;BME280;52405;50.844;-1.062;2022-11-15T10:44:56;99487.97;;;13.76;82.61
65685;BME280;52405;50.844;-1.062;2022-11-15T10:47:30;99471.41;;;13.71;83.02
65685;BME280;52405;50.844;-1.062;2022-11-15T10:50:27;99471.44;;;13.78;82.42
65685;BME280;52405;50.844;-1.062;2022-11-15T10:52:54;99456.66;;;13.82;82.72
65685;BME280;52405;50.844;-1.062;2022-11-15T10:55:26;99458.41;;;13.86;82.71
65685;BME280;52405;50.844;-1.062;2022-11-15T10:58:03;99454.06;;;13.90;82.57
65685;BME280;52405;50.844;-1.062;2022-11-15T11:00:33;99452.34;;;13.92;82.44
65685;BME280;52405;50.844;-1.062;2022-11-15T11:03:02;99451.47;;;13.94;82.10
65685;BME280;52405;50.844;-1.062;2022-11-15T11:05:32;99434.06;;;13.96;82.31
65685;BME280;52405;50.844;-1.062;2022-11-15T11:08:04;99422.75;;;13.96;82.06
65685;BME280;52405;50.844;-1.062;2022-11-15T11:10:30;99423.63;;;13.96;81.95
65685;BME280;52405;50.844;-1.062;2022-11-15T11:13:12;99413.19;;;14.01;82.52
65685;BME280;52405;50.844;-1.062;2022-11-15T11:15:38;99418.41;;;14.01;82.20
65685;BME280;52405;50.844;-1.062;2022-11-15T11:18:10;99399.25;;;14.05;81.53
65685;BME280;52405;50.844;-1.062;2022-11-15T11:20:53;99401.88;;;14.06;81.84
65685;BME280;52405;50.844;-1.062;2022-11-15T11:35:05;99361.84;;;14.23;81.13
65685;BME280;52405;50.844;-1.062;2022-11-15T11:42:39;99360.06;;;14.33;81.22
65685;BME280;52405;50.844;-1.062;2022-11-15T11:50:27;99377.44;;;14.57;80.72
65685;BME280;52405;50.844;-1.062;2022-11-15T11:52:57;99373.94;;;14.70;80.54
65685;BME280;52405;50.844;-1.062;2022-11-15T11:55:27;99368.69;;;14.84;81.21
65685;BME280;52405;50.844;-1.062;2022-11-15T12:00:46;99368.56;;;15.15;80.47
65685;BME280;52405;50.844;-1.062;2022-11-15T12:03:25;99378.09;;;15.28;79.87
65685;BME280;52405;50.844;-1.062;2022-11-15T12:05:57;99383.25;;;15.42;79.66
65685;BME280;52405;50.844;-1.062;2022-11-15T12:11:20;99400.56;;;15.65;79.09
65685;BME280;52405;50.844;-1.062;2022-11-15T12:13:50;99396.19;;;15.70;79.23
65685;BME280;52405;50.844;-1.062;2022-11-15T12:16:32;99396.13;;;15.73;77.56
65685;BME280;52405;50.844;-1.062;2022-11-15T12:19:03;99401.38;;;15.79;77.52
65685;BME280;52405;50.844;-1.062;2022-11-15T12:27:20;99410.50;;;16.40;75.48
65685;BME280;52405;50.844;-1.062;2022-11-15T12:30:02;99418.22;;;16.54;74.54
65685;BME280;52405;50.844;-1.062;2022-11-15T12:32:32;99399.94;;;16.46;73.74
65685;BME280;52405;50.844;-1.062;2022-11-15T12:35:00;99433.88;;;16.62;72.41
65685;BME280;52405;50.844;-1.062;2022-11-15T12:45:35;99434.00;;;16.51;70.48
65685;BME280;52405;50.844;-1.062;2022-11-15T12:58:58;99440.16;;;16.44;70.37
65685;BME280;52405;50.844;-1.062;2022-11-15T13:07:07;99442.78;;;16.44;70.56
65685;BME280;52405;50.844;-1.062;2022-11-15T13:12:03;99432.41;;;16.33;69.56
65685;BME280;52405;50.844;-1.062;2022-11-15T13:14:52;99437.63;;;16.36;68.25
65685;BME280;52405;50.844;-1.062;2022-11-15T13:28:12;99436.94;;;16.12;68.26
65685;BME280;52405;50.844;-1.062;2022-11-15T13:33:19;99429.97;;;16.08;67.92
65685;BME280;52405;50.844;-1.062;2022-11-15T13:35:48;99420.38;;;16.04;67.45
65685;BME280;52405;50.844;-1.062;2022-11-15T13:38:34;99418.66;;;16.03;66.33
65685;BME280;52405;50.844;-1.062;2022-11-15T13:41:17;99425.69;;;15.99;66.66
65685;BME280;52405;50.844;-1.062;2022-11-15T13:43:44;99421.31;;;15.97;66.89
65685;BME280;52405;50.844;-1.062;2022-11-15T13:46:14;99414.38;;;15.93;65.69
65685;BME280;52405;50.844;-1.062;2022-11-15T13:48:42;99414.38;;;15.90;65.99
65685;BME280;52405;50.844;-1.062;2022-11-15T13:54:15;99423.13;;;15.90;66.66
65685;BME280;52405;50.844;-1.062;2022-11-15T13:56:57;99421.41;;;15.86;66.18
65685;BME280;52405;50.844;-1.062;2022-11-15T13:59:27;99430.13;;;15.88;66.20
65685;BME280;52405;50.844;-1.062;2022-11-15T14:01:54;99424.91;;;15.87;66.18
65685;BME280;52405;50.844;-1.062;2022-11-15T14:04:23;99419.66;;;15.85;66.04
65685;BME280;52405;50.844;-1.062;2022-11-15T14:06:54;99420.53;;;15.84;66.35
65685;BME280;52405;50.844;-1.062;2022-11-15T14:09:40;99421.41;;;15.83;65.58
65685;BME280;52405;50.844;-1.062;2022-11-15T14:12:34;99424.91;;;15.80;65.76
65685;BME280;52405;50.844;-1.062;2022-11-15T14:17:55;99433.69;;;15.72;66.99
65685;BME280;52405;50.844;-1.062;2022-11-15T14:20:35;99426.69;;;15.68;66.20
65685;BME280;52405;50.844;-1.062;2022-11-15T14:23:03;99433.72;;;15.64;66.36
65685;BME280;52405;50.844;-1.062;2022-11-15T14:25:35;99424.13;;;15.58;66.03
65685;BME280;52405;50.844;-1.062;2022-11-15T14:28:16;99418.09;;;15.53;66.87
65685;BME280;52405;50.844;-1.062;2022-11-15T14:30:55;99416.38;;;15.43;66.71
65685;BME280;52405;50.844;-1.062;2022-11-15T14:33:39;99423.34;;;15.47;66.43
65685;BME280;52405;50.844;-1.062;2022-11-15T14:36:15;99439.06;;;15.42;67.00
65685;BME280;52405;50.844;-1.062;2022-11-15T14:38:41;99439.13;;;15.35;67.58
65685;BME280;52405;50.844;-1.062;2022-11-15T14:41:25;99435.63;;;15.31;67.53
65685;BME280;52405;50.844;-1.062;2022-11-15T14:43:57;99439.13;;;15.27;67.51
65685;BME280;52405;50.844;-1.062;2022-11-15T14:46:23;99426.94;;;15.21;67.19
65685;BME280;52405;50.844;-1.062;2022-11-15T14:48:48;99438.28;;;15.17;67.70
65685;BME280;52405;50.844;-1.062;2022-11-15T14:51:16;99445.28;;;15.11;67.56
65685;BME280;52405;50.844;-1.062;2022-11-15T14:53:43;99451.41;;;15.07;67.99
65685;BME280;52405;50.844;-1.062;2022-11-15T14:56:09;99452.28;;;15.02;68.50
65685;BME280;52405;50.844;-1.062;2022-11-15T14:58:34;99455.75;;;15.01;68.63
65685;BME280;52405;50.844;-1.062;2022-11-15T15:01:03;99447.06;;;14.99;69.24
65685;BME280;52405;50.844;-1.062;2022-11-15T15:03:33;99446.19;;;15.00;69.38